createdAt,value
2018-05-10T00:01:31.417Z,99.80
2018-05-10T00:03:58.920Z,99.40
2018-05-10T00:06:26.462Z,99.30
2018-05-10T00:08:54.746Z,99.60
2018-05-10T00:11:23.101Z,99.90
2018-05-10T00:13:50.608Z,99.90
2018-05-10T00:16:18.152Z,99.90
2018-05-10T00:18:45.643Z,99.90
2018-05-10T00:21:13.152Z,99.90
2018-05-10T00:23:41.401Z,99.90
2018-05-10T00:26:08.912Z,99.90
2018-05-10T00:28:36.441Z,99.90
2018-05-10T00:31:04.670Z,99.90
2018-05-10T00:33:32.204Z,99.90
2018-05-10T00:35:59.695Z,99.90
2018-05-10T00:38:27.208Z,99.90
2018-05-10T00:40:54.676Z,99.90
2018-05-10T00:43:22.162Z,99.90
2018-05-10T00:45:49.691Z,99.90
2018-05-10T00:48:17.219Z,99.90
2018-05-10T00:50:45.487Z,99.90
2018-05-10T00:53:13.785Z,99.90
2018-05-10T00:55:41.248Z,99.90
2018-05-10T00:58:08.733Z,99.80
2018-05-10T01:00:36.242Z,99.90
2018-05-10T01:03:04.495Z,99.90
2018-05-10T01:05:31.961Z,99.90
2018-05-10T01:08:00.259Z,99.90
2018-05-10T01:10:28.534Z,99.90
2018-05-10T01:12:56.064Z,99.90
2018-05-10T01:15:23.549Z,99.90
2018-05-10T01:17:51.034Z,99.90
2018-05-10T01:20:18.552Z,99.80
2018-05-10T01:22:46.828Z,99.90
2018-05-10T01:25:15.091Z,99.90
2018-05-10T01:27:42.625Z,99.90
2018-05-10T01:30:10.867Z,99.90
2018-05-10T01:32:38.344Z,99.90
2018-05-10T01:35:17.730Z,99.90
2018-05-10T01:37:46.021Z,99.90
2018-05-10T01:40:13.520Z,99.90
2018-05-10T01:42:41.020Z,99.90
2018-05-10T01:45:09.296Z,99.90
2018-05-10T01:47:37.553Z,99.90
2018-05-10T01:50:05.092Z,99.90
2018-05-10T01:52:32.571Z,99.90
2018-05-10T01:55:00.127Z,99.90
2018-05-10T01:57:27.593Z,99.90
2018-05-10T01:59:55.081Z,99.90
2018-05-10T02:02:22.596Z,99.90
2018-05-10T02:04:50.138Z,99.90
2018-05-10T02:07:17.622Z,99.90
2018-05-10T02:09:45.886Z,99.70
2018-05-10T02:12:13.397Z,99.70
2018-05-10T02:14:40.943Z,99.50
2018-05-10T02:17:08.375Z,99.90
2018-05-10T02:19:35.841Z,99.70
2018-05-10T02:22:04.128Z,99.90
2018-05-10T02:24:31.673Z,99.60
2018-05-10T02:26:59.898Z,99.90
2018-05-10T02:29:27.389Z,99.90
2018-05-10T02:31:54.867Z,99.90
2018-05-10T02:34:23.135Z,99.90
2018-05-10T02:36:51.402Z,99.90
2018-05-10T02:39:18.901Z,99.90
2018-05-10T02:41:46.358Z,99.90
2018-05-10T02:44:13.896Z,99.90
2018-05-10T02:46:42.182Z,99.90
2018-05-10T02:49:09.720Z,99.90
2018-05-10T02:51:37.989Z,99.90
2018-05-10T02:54:06.284Z,99.90
2018-05-10T02:56:33.789Z,99.90
2018-05-10T02:59:01.348Z,99.70
2018-05-10T03:01:29.839Z,99.90
2018-05-10T03:03:57.361Z,99.90
2018-05-10T03:06:24.877Z,99.90
2018-05-10T03:08:53.161Z,99.90
2018-05-10T03:11:21.440Z,99.90
2018-05-10T03:13:49.708Z,99.90
2018-05-10T03:16:18.022Z,99.90
2018-05-10T03:18:45.519Z,99.90
2018-05-10T03:21:13.024Z,99.90
2018-05-10T03:23:40.556Z,99.90
2018-05-10T03:26:08.084Z,99.90
2018-05-10T03:28:35.598Z,99.90
2018-05-10T03:31:03.094Z,99.90
2018-05-10T03:33:30.564Z,99.90
2018-05-10T03:35:58.101Z,99.90
2018-05-10T03:38:25.598Z,99.90
2018-05-10T03:40:53.128Z,99.90
2018-05-10T03:43:20.650Z,99.90
2018-05-10T03:45:48.188Z,99.90
2018-05-10T03:48:16.442Z,99.90
2018-05-10T03:50:43.991Z,99.90
2018-05-10T03:53:11.503Z,99.90
2018-05-10T03:55:39.005Z,99.90
2018-05-10T03:58:06.502Z,99.90
2018-05-10T04:00:34.796Z,99.90
2018-05-10T04:06:09.722Z,99.90
2018-05-10T04:08:48.986Z,99.90
2018-05-10T04:11:20.252Z,99.90
2018-05-10T04:13:47.779Z,99.90
2018-05-10T04:16:15.278Z,99.90
2018-05-10T04:18:43.524Z,99.70
2018-05-10T04:21:11.080Z,99.70
2018-05-10T04:23:38.547Z,99.40
2018-05-10T04:26:06.084Z,99.30
2018-05-10T04:28:33.558Z,99.30
2018-05-10T04:31:01.101Z,99.40
2018-05-10T04:33:28.626Z,99.40
2018-05-10T04:35:56.154Z,99.60
2018-05-10T04:38:23.685Z,99.80
2018-05-10T04:40:51.170Z,99.40
2018-05-10T04:43:18.681Z,99.50
2018-05-10T04:45:46.197Z,98.90
2018-05-10T04:48:13.697Z,99.00
2018-05-10T04:50:41.217Z,98.80
2018-05-10T04:53:08.801Z,98.70
2018-05-10T04:55:37.077Z,97.40
2018-05-10T04:58:05.434Z,97.20
2018-05-10T05:00:32.951Z,97.20
2018-05-10T05:03:00.485Z,96.90
2018-05-10T05:05:28.017Z,96.30
2018-05-10T05:07:55.518Z,96.50
2018-05-10T05:10:22.987Z,95.50
2018-05-10T05:12:50.543Z,95.70
2018-05-10T05:15:18.027Z,95.10
2018-05-10T05:17:45.559Z,94.30
2018-05-10T05:20:13.094Z,94.20
2018-05-10T05:22:40.578Z,93.90
2018-05-10T05:25:08.107Z,91.90
2018-05-10T05:27:35.636Z,90.40
2018-05-10T05:30:03.125Z,87.30
2018-05-10T05:32:30.661Z,83.60
2018-05-10T05:34:58.927Z,75.40
2018-05-10T05:37:26.480Z,75.40
2018-05-10T05:39:53.984Z,69.00
2018-05-10T05:42:21.521Z,67.30
2018-05-10T05:44:49.827Z,63.00
2018-05-10T05:47:17.316Z,62.20
2018-05-10T05:49:44.841Z,59.30
2018-05-10T05:52:12.356Z,58.90
2018-05-10T05:54:40.624Z,55.70
2018-05-10T05:57:08.164Z,55.00
2018-05-10T05:59:35.627Z,55.00
2018-05-10T06:02:03.123Z,55.00
2018-05-10T06:04:30.600Z,56.80
2018-05-10T06:06:58.138Z,54.40
2018-05-10T06:09:25.638Z,53.50
2018-05-10T06:11:53.156Z,52.70
2018-05-10T06:14:20.680Z,51.20
2018-05-10T06:16:48.196Z,51.10
2018-05-10T06:19:15.724Z,50.10
2018-05-10T06:21:44.008Z,49.10
2018-05-10T06:24:11.545Z,49.00
2018-05-10T06:26:39.832Z,48.00
2018-05-10T06:29:08.157Z,49.80
2018-05-10T06:31:35.627Z,49.80
2018-05-10T06:34:03.181Z,48.50
2018-05-10T06:36:30.692Z,46.80
2018-05-10T06:38:58.190Z,46.70
2018-05-10T06:41:25.756Z,46.40
2018-05-10T06:43:53.990Z,45.70
2018-05-10T06:46:21.509Z,45.60
2018-05-10T06:48:49.038Z,47.20
2018-05-10T06:51:16.585Z,45.90
2018-05-10T06:53:44.135Z,48.40
2018-05-10T06:56:11.615Z,48.60
2018-05-10T06:58:39.128Z,47.00
2018-05-10T07:01:07.421Z,42.90
2018-05-10T07:03:34.914Z,42.90
2018-05-10T07:06:02.436Z,45.90
2018-05-10T07:08:29.956Z,45.50
2018-05-10T07:10:58.248Z,45.20
2018-05-10T07:13:26.527Z,44.60
2018-05-10T07:15:54.777Z,44.20
2018-05-10T07:18:22.276Z,44.20
2018-05-10T07:20:49.751Z,43.40
2018-05-10T07:23:17.247Z,43.10
2018-05-10T07:25:44.767Z,45.90
2018-05-10T07:28:12.290Z,43.60
2018-05-10T07:30:40.556Z,45.70
2018-05-10T07:33:08.802Z,44.60
2018-05-10T07:35:36.312Z,44.50
2018-05-10T07:38:03.844Z,43.90
2018-05-10T07:40:32.129Z,42.50
2018-05-10T07:43:00.386Z,43.60
2018-05-10T07:45:27.867Z,43.70
2018-05-10T07:47:55.375Z,41.90
2018-05-10T07:50:22.892Z,41.60
2018-05-10T07:52:50.404Z,40.10
2018-05-10T07:55:17.924Z,42.40
2018-05-10T07:57:46.440Z,43.00
2018-05-10T08:00:13.954Z,41.60
2018-05-10T08:02:41.475Z,40.70
2018-05-10T08:05:09.012Z,40.70
2018-05-10T08:07:36.520Z,39.80
2018-05-10T08:10:04.059Z,38.00
2018-05-10T08:12:34.131Z,37.30
2018-05-10T08:15:02.419Z,38.80
2018-05-10T08:17:30.024Z,38.90
2018-05-10T08:19:57.616Z,37.80
2018-05-10T08:22:25.098Z,41.00
2018-05-10T08:24:52.632Z,39.70
2018-05-10T08:27:20.152Z,38.00
2018-05-10T08:29:49.376Z,37.50
2018-05-10T08:32:16.887Z,37.30
2018-05-10T08:34:44.362Z,38.40
2018-05-10T08:37:12.643Z,40.70
2018-05-10T08:39:40.948Z,40.60
2018-05-10T08:42:08.475Z,40.50
2018-05-10T08:44:36.738Z,38.80
2018-05-10T08:47:04.561Z,38.70
2018-05-10T08:49:32.093Z,39.40
2018-05-10T08:51:59.684Z,42.90
2018-05-10T08:54:27.058Z,42.30
2018-05-10T08:56:54.535Z,42.70
2018-05-10T08:59:22.797Z,42.70
2018-05-10T09:01:50.311Z,42.20
2018-05-10T09:04:17.796Z,41.70
2018-05-10T09:06:45.284Z,46.70
2018-05-10T09:09:12.760Z,49.00
2018-05-10T09:11:41.008Z,52.60
2018-05-10T09:14:08.496Z,52.60
2018-05-10T09:16:36.032Z,54.70
2018-05-10T09:19:03.567Z,55.20
2018-05-10T09:21:31.042Z,54.00
2018-05-10T09:23:58.553Z,53.40
2018-05-10T09:26:26.065Z,54.90
2018-05-10T09:28:54.315Z,59.00
2018-05-10T09:31:21.828Z,58.90
2018-05-10T09:33:49.391Z,58.50
2018-05-10T09:36:16.859Z,58.40
2018-05-10T09:38:44.376Z,55.90
2018-05-10T09:41:11.899Z,56.60
2018-05-10T09:43:39.409Z,59.70
2018-05-10T09:46:06.982Z,59.60
2018-05-10T09:48:34.445Z,58.50
2018-05-10T09:51:01.979Z,58.30
2018-05-10T09:53:30.255Z,58.20
2018-05-10T09:55:58.502Z,59.50
2018-05-10T09:58:25.979Z,59.50
2018-05-10T10:00:54.294Z,60.00
2018-05-10T10:03:21.779Z,59.90
2018-05-10T10:05:49.317Z,59.40
2018-05-10T10:08:16.788Z,60.70
2018-05-10T10:10:44.313Z,61.50
2018-05-10T10:13:11.809Z,63.60
2018-05-10T10:15:39.351Z,67.80
2018-05-10T10:18:06.788Z,64.60
2018-05-10T10:20:34.313Z,67.10
2018-05-10T10:23:02.602Z,85.20
2018-05-10T10:25:30.888Z,76.80
2018-05-10T10:27:59.120Z,78.30
2018-05-10T10:30:26.680Z,78.00
2018-05-10T10:32:54.159Z,87.50
2018-05-10T10:35:22.460Z,90.80
2018-05-10T10:37:49.998Z,90.70
2018-05-10T10:40:18.272Z,91.10
2018-05-10T10:42:46.518Z,88.80
2018-05-10T10:45:13.994Z,88.70
2018-05-10T10:47:41.491Z,90.80
2018-05-10T10:50:09.007Z,92.30
2018-05-10T10:52:36.625Z,94.20
2018-05-10T10:55:04.094Z,96.10
2018-05-10T10:57:31.621Z,95.60
2018-05-10T10:59:59.118Z,93.40
2018-05-10T11:02:26.635Z,98.00
2018-05-10T11:04:54.118Z,97.40
2018-05-10T11:07:21.672Z,98.40
2018-05-10T11:09:49.174Z,98.00
2018-05-10T11:12:17.464Z,98.30
2018-05-10T11:14:46.690Z,98.60
2018-05-10T11:17:14.170Z,98.60
2018-05-10T11:19:41.711Z,99.40
2018-05-10T11:22:09.228Z,98.80
2018-05-10T11:24:37.458Z,97.40
2018-05-10T11:27:04.978Z,97.40
2018-05-10T11:29:32.495Z,97.50
2018-05-10T11:32:00.009Z,97.90
2018-05-10T11:34:27.487Z,97.90
2018-05-10T11:36:54.969Z,96.90
2018-05-10T11:39:22.442Z,98.80
2018-05-10T11:41:50.701Z,99.90
2018-05-10T11:44:18.220Z,99.90
2018-05-10T11:46:45.734Z,97.50
2018-05-10T11:49:14.013Z,96.60
2018-05-10T11:51:42.258Z,96.10
2018-05-10T11:54:09.754Z,96.10
2018-05-10T11:56:38.008Z,97.90
2018-05-10T11:59:05.474Z,97.90
2018-05-10T12:01:32.950Z,97.90
2018-05-10T12:04:00.415Z,97.00
2018-05-10T12:06:27.932Z,96.60
2018-05-10T12:08:55.395Z,96.00
2018-05-10T12:11:22.874Z,95.90
2018-05-10T12:13:51.169Z,96.50
2018-05-10T12:16:18.751Z,96.50
2018-05-10T12:18:46.256Z,97.20
2018-05-10T12:21:14.537Z,99.90
2018-05-10T12:23:42.819Z,97.90
2018-05-10T12:26:11.048Z,95.70
2018-05-10T12:28:38.581Z,95.60
2018-05-10T12:31:06.158Z,97.30
2018-05-10T12:33:33.625Z,94.00
2018-05-10T12:36:01.115Z,93.80
2018-05-10T12:38:29.405Z,90.60
2018-05-10T12:40:57.642Z,92.20
2018-05-10T12:43:25.239Z,92.20
2018-05-10T12:45:53.546Z,92.60
2018-05-10T12:48:21.047Z,92.60
2018-05-10T12:50:48.616Z,91.80
2018-05-10T12:53:16.857Z,93.00
2018-05-10T12:55:44.372Z,93.00
2018-05-10T12:58:11.872Z,95.20
2018-05-10T13:00:39.383Z,95.60
2018-05-10T13:03:06.921Z,95.00
2018-05-10T13:05:35.192Z,94.60
2018-05-10T13:08:02.722Z,94.60
2018-05-10T13:10:30.193Z,97.20
2018-05-10T13:12:57.715Z,97.40
2018-05-10T13:15:25.229Z,98.00
2018-05-10T13:17:52.706Z,99.00
2018-05-10T13:20:20.221Z,98.50
2018-05-10T13:22:47.732Z,99.50
2018-05-10T13:25:15.199Z,99.20
2018-05-10T13:27:43.574Z,99.10
2018-05-10T13:30:11.062Z,99.40
2018-05-10T13:32:38.569Z,98.60
2018-05-10T13:35:06.859Z,99.60
2018-05-10T13:37:34.369Z,99.60
2018-05-10T13:40:01.862Z,98.80
2018-05-10T13:42:29.321Z,99.90
2018-05-10T13:44:56.807Z,99.30
2018-05-10T13:47:24.401Z,97.20
2018-05-10T13:49:51.844Z,97.10
2018-05-10T13:52:20.133Z,99.10
2018-05-10T13:54:47.676Z,98.80
2018-05-10T13:57:15.192Z,99.90
2018-05-10T13:59:42.679Z,99.90
2018-05-10T14:02:10.168Z,99.80
2018-05-10T14:04:37.674Z,99.70
2018-05-10T14:07:05.130Z,99.00
2018-05-10T14:09:32.631Z,96.70
2018-05-10T14:12:00.210Z,97.40
2018-05-10T14:14:28.470Z,99.90
2018-05-10T14:16:55.984Z,99.80
2018-05-10T14:19:23.852Z,99.90
2018-05-10T14:21:51.360Z,98.40
2018-05-10T14:24:18.903Z,97.60
2018-05-10T14:26:46.408Z,97.90
2018-05-10T14:29:13.903Z,98.60
2018-05-10T14:31:41.371Z,99.60
2018-05-10T14:34:08.887Z,95.20
2018-05-10T14:36:36.363Z,96.50
2018-05-10T14:39:03.892Z,96.50
2018-05-10T14:41:31.359Z,98.10
2018-05-10T14:43:58.895Z,97.00
2018-05-10T14:46:27.193Z,94.50
2018-05-10T14:48:54.678Z,94.50
2018-05-10T14:51:22.173Z,93.70
2018-05-10T14:53:49.634Z,93.80
2018-05-10T14:56:17.887Z,94.30
2018-05-10T14:58:45.363Z,94.20
2018-05-10T15:01:13.620Z,94.50
2018-05-10T15:03:41.161Z,94.50
2018-05-10T15:06:08.714Z,95.50
2018-05-10T15:08:36.186Z,95.60
2018-05-10T15:11:03.708Z,93.90
2018-05-10T15:13:31.171Z,93.40
2018-05-10T15:15:58.649Z,92.70
2018-05-10T15:18:26.272Z,92.20
2018-05-10T15:20:53.782Z,94.00
2018-05-10T15:23:21.412Z,96.40
2018-05-10T15:25:48.890Z,97.50
2018-05-10T15:28:16.363Z,98.70
2018-05-10T15:30:43.873Z,99.90
2018-05-10T15:33:11.400Z,99.90
2018-05-10T15:35:39.650Z,99.90
2018-05-10T15:38:07.125Z,99.90
2018-05-10T15:40:35.468Z,99.90
2018-05-10T15:43:02.949Z,99.90
2018-05-10T15:45:30.511Z,99.90
2018-05-10T15:47:58.026Z,99.90
2018-05-10T15:50:25.536Z,99.90
2018-05-10T15:52:53.055Z,99.90
2018-05-10T15:55:20.551Z,99.90
2018-05-10T15:57:48.164Z,99.90
2018-05-10T16:00:15.670Z,99.90
2018-05-10T16:02:43.211Z,99.90
2018-05-10T16:05:10.793Z,99.90
2018-05-10T16:07:39.111Z,99.90
2018-05-10T16:10:06.661Z,99.90
2018-05-10T16:12:34.190Z,99.90
2018-05-10T16:15:02.450Z,99.90
2018-05-10T16:17:29.935Z,99.90
2018-05-10T16:19:57.476Z,99.90
2018-05-10T16:22:25.776Z,99.90
2018-05-10T16:24:53.318Z,99.90
2018-05-10T16:27:21.617Z,99.90
2018-05-10T16:29:49.102Z,99.90
2018-05-10T16:32:16.592Z,99.90
2018-05-10T16:34:44.091Z,99.90
2018-05-10T16:37:11.607Z,99.90
2018-05-10T16:39:39.081Z,99.90
2018-05-10T16:42:07.351Z,99.90
2018-05-10T16:44:35.646Z,99.90
2018-05-10T16:47:03.232Z,99.90
2018-05-10T16:49:30.722Z,99.90
2018-05-10T16:51:58.249Z,99.90
2018-05-10T16:54:25.722Z,99.90
2018-05-10T16:56:53.227Z,99.90
2018-05-10T16:59:21.514Z,99.90
2018-05-10T17:01:49.043Z,99.90
2018-05-10T17:04:16.564Z,99.90
2018-05-10T17:06:44.097Z,99.90
2018-05-10T17:09:11.612Z,99.90
2018-05-10T17:11:39.095Z,99.90
2018-05-10T17:14:06.633Z,99.90
2018-05-10T17:16:34.899Z,99.90
2018-05-10T17:19:02.435Z,99.90
2018-05-10T17:21:29.938Z,99.90
2018-05-10T17:23:58.213Z,99.90
2018-05-10T17:26:26.506Z,99.90
2018-05-10T17:28:54.013Z,99.90
2018-05-10T17:31:21.499Z,99.90
2018-05-10T17:33:49.780Z,99.90
2018-05-10T17:36:18.035Z,99.90
2018-05-10T17:38:45.504Z,99.90
2018-05-10T17:41:13.805Z,99.90
2018-05-10T17:43:41.282Z,99.90
2018-05-10T17:46:08.825Z,99.90
2018-05-10T17:48:36.292Z,99.90
2018-05-10T17:51:03.771Z,99.90
2018-05-10T17:53:31.258Z,99.90
2018-05-10T17:55:58.824Z,99.90
2018-05-10T17:58:26.304Z,99.90
2018-05-10T18:00:53.824Z,99.90
2018-05-10T18:03:21.351Z,99.90
2018-05-10T18:05:48.857Z,99.90
2018-05-10T18:08:16.350Z,99.90
2018-05-10T18:10:43.856Z,99.90
2018-05-10T18:13:11.357Z,99.90
2018-05-10T18:15:38.828Z,99.90
2018-05-10T18:18:06.359Z,99.90
2018-05-10T18:20:34.625Z,99.90
2018-05-10T18:23:02.912Z,99.90
2018-05-10T18:25:31.146Z,99.90
2018-05-10T18:27:59.261Z,99.90
2018-05-10T18:30:27.556Z,99.90
2018-05-10T18:32:55.034Z,99.90
2018-05-10T18:35:22.527Z,99.90
2018-05-10T18:37:50.057Z,99.90
2018-05-10T18:40:17.662Z,99.90
2018-05-10T18:42:45.927Z,99.90
2018-05-10T18:45:14.205Z,99.90
2018-05-10T18:47:41.736Z,99.90
2018-05-10T18:50:09.215Z,99.90
2018-05-10T18:52:37.462Z,99.90
2018-05-10T18:55:04.984Z,99.90
2018-05-10T18:57:32.499Z,99.90
2018-05-10T19:00:00.019Z,99.90
2018-05-10T19:02:27.516Z,99.90
2018-05-10T19:04:55.846Z,99.90
2018-05-10T19:07:23.449Z,99.90
2018-05-10T19:09:50.904Z,99.90
2018-05-10T19:12:18.400Z,99.90
2018-05-10T19:14:45.928Z,99.90
2018-05-10T19:17:13.478Z,99.90
2018-05-10T19:19:42.487Z,99.90
2018-05-10T19:22:10.755Z,99.90
2018-05-10T19:24:38.272Z,99.90
2018-05-10T19:27:05.769Z,99.90
2018-05-10T19:29:33.296Z,99.90
2018-05-10T19:32:00.773Z,99.90
2018-05-10T19:34:28.303Z,99.90
2018-05-10T19:36:55.825Z,99.90
2018-05-10T19:39:24.108Z,99.90
2018-05-10T19:41:51.631Z,99.90
2018-05-10T19:44:19.151Z,99.90
2018-05-10T19:46:46.664Z,99.90
2018-05-10T19:49:14.962Z,99.90
2018-05-10T19:51:42.471Z,99.90
2018-05-10T19:54:09.999Z,99.90
2018-05-10T19:56:37.599Z,99.90
2018-05-10T19:59:05.056Z,99.90
2018-05-10T20:01:32.543Z,99.90
2018-05-10T20:04:00.071Z,99.90
2018-05-10T20:06:27.592Z,99.90
2018-05-10T20:08:55.082Z,99.90
2018-05-10T20:11:22.556Z,99.90
2018-05-10T20:13:50.904Z,99.90
2018-05-10T20:16:18.319Z,99.90
2018-05-10T20:18:45.816Z,99.90
2018-05-10T20:21:14.840Z,99.90
2018-05-10T20:23:42.332Z,99.90
2018-05-10T20:26:09.802Z,99.90
2018-05-10T20:28:37.381Z,99.90
2018-05-10T20:31:04.862Z,99.90
2018-05-10T20:33:32.355Z,99.90
2018-05-10T20:35:59.874Z,99.90
2018-05-10T20:38:27.405Z,99.90
2018-05-10T20:40:54.886Z,99.90
2018-05-10T20:43:22.417Z,99.90
2018-05-10T20:45:49.926Z,99.90
2018-05-10T20:48:18.180Z,99.90
2018-05-10T20:50:45.658Z,99.90
2018-05-10T20:53:13.955Z,99.90
2018-05-10T20:55:41.436Z,99.90
2018-05-10T20:58:08.954Z,99.90
2018-05-10T21:00:37.243Z,99.90
2018-05-10T21:03:05.496Z,99.90
2018-05-10T21:05:33.796Z,99.90
2018-05-10T21:08:01.263Z,99.90
2018-05-10T21:10:28.822Z,99.90
2018-05-10T21:12:56.354Z,99.90
2018-05-10T21:15:24.661Z,99.90
2018-05-10T21:17:52.172Z,99.90
2018-05-10T21:20:19.658Z,99.90
2018-05-10T21:22:47.172Z,99.90
2018-05-10T21:25:14.693Z,99.90
2018-05-10T21:27:42.191Z,99.90
2018-05-10T21:30:09.723Z,99.90
2018-05-10T21:32:37.190Z,99.90
2018-05-10T21:35:04.719Z,99.90
2018-05-10T21:37:32.236Z,99.90
2018-05-10T21:40:00.533Z,99.90
2018-05-10T21:42:28.066Z,99.90
2018-05-10T21:44:56.346Z,99.90
2018-05-10T21:47:24.589Z,99.90
2018-05-10T21:50:02.084Z,99.90
2018-05-10T21:52:29.600Z,99.90
2018-05-10T21:54:57.152Z,99.90
2018-05-10T21:57:24.632Z,99.90
2018-05-10T21:59:52.136Z,99.90
2018-05-10T22:02:20.386Z,99.90
2018-05-10T22:04:47.879Z,99.90
2018-05-10T22:07:16.159Z,99.90
2018-05-10T22:09:44.451Z,99.90
2018-05-10T22:12:12.005Z,99.90
2018-05-10T22:14:39.455Z,99.90
2018-05-10T22:17:07.740Z,99.90
2018-05-10T22:19:36.020Z,99.90
2018-05-10T22:22:03.532Z,99.90
2018-05-10T22:24:31.150Z,99.90
2018-05-10T22:26:58.595Z,99.90
2018-05-10T22:29:26.160Z,99.90
2018-05-10T22:31:53.675Z,99.90
2018-05-10T22:34:21.181Z,99.90
2018-05-10T22:36:48.657Z,99.90
2018-05-10T22:39:16.131Z,99.90
2018-05-10T22:41:43.663Z,99.90
2018-05-10T22:44:11.193Z,99.90
2018-05-10T22:46:39.477Z,99.90
2018-05-10T22:49:07.010Z,99.90
2018-05-10T22:51:35.272Z,99.90
2018-05-10T22:54:02.751Z,99.90
2018-05-10T22:56:31.052Z,99.90
2018-05-10T22:58:58.526Z,99.90
2018-05-10T23:01:26.027Z,99.90
2018-05-10T23:03:53.544Z,99.90
2018-05-10T23:06:21.026Z,99.90
2018-05-10T23:08:48.531Z,99.90
2018-05-10T23:11:16.014Z,99.90
2018-05-10T23:13:43.529Z,99.90
2018-05-10T23:16:11.787Z,99.90
2018-05-10T23:18:39.262Z,99.90
2018-05-10T23:21:07.544Z,99.90
2018-05-10T23:23:35.783Z,99.90
2018-05-10T23:26:03.290Z,99.90
2018-05-10T23:28:30.766Z,99.90
2018-05-10T23:30:58.264Z,99.90
2018-05-10T23:33:25.773Z,99.90
2018-05-10T23:35:53.310Z,99.90
2018-05-10T23:38:20.838Z,99.90
2018-05-10T23:40:48.333Z,99.90
2018-05-10T23:43:15.828Z,99.90
2018-05-10T23:45:43.344Z,99.90
2018-05-10T23:48:10.876Z,99.90
2018-05-10T23:50:38.392Z,99.90
2018-05-10T23:53:05.941Z,99.90
2018-05-10T23:55:33.465Z,99.90
2018-05-10T23:58:01.710Z,99.90
